sensor_id;sensor_type;location;lat;lon;timestamp;P1;durP1;ratioP1;P2;durP2;ratioP2
12810;SDS011;6470;47.654;7.896;2023-04-09T00:00:35;0.20;;;0.20;;
12810;SDS011;6470;47.654;7.896;2023-04-09T00:03:01;0.10;;;0.10;;
12810;SDS011;6470;47.654;7.896;2023-04-09T00:05:27;0.20;;;0.20;;
12810;SDS011;6470;47.654;7.896;2023-04-09T00:07:53;0.20;;;0.20;;
12810;SDS011;6470;47.654;7.896;2023-04-09T00:10:19;0.20;;;0.20;;
12810;SDS011;6470;47.654;7.896;2023-04-09T00:12:45;0.10;;;0.10;;
12810;SDS011;6470;47.654;7.896;2023-04-09T00:15:10;0.20;;;0.20;;
12810;SDS011;6470;47.654;7.896;2023-04-09T00:17:36;0.20;;;0.20;;
12810;SDS011;6470;47.654;7.896;2023-04-09T00:20:02;0.30;;;0.30;;
12810;SDS011;6470;47.654;7.896;2023-04-09T00:22:28;0.20;;;0.20;;
12810;SDS011;6470;47.654;7.896;2023-04-09T00:24:54;0.20;;;0.20;;
12810;SDS011;6470;47.654;7.896;2023-04-09T00:27:21;0.10;;;0.10;;
12810;SDS011;6470;47.654;7.896;2023-04-09T00:29:47;0.20;;;0.20;;
12810;SDS011;6470;47.654;7.896;2023-04-09T00:32:13;0.20;;;0.20;;
12810;SDS011;6470;47.654;7.896;2023-04-09T00:34:38;0.20;;;0.20;;
12810;SDS011;6470;47.654;7.896;2023-04-09T00:37:04;0.10;;;0.10;;
12810;SDS011;6470;47.654;7.896;2023-04-09T00:39:30;0.20;;;0.20;;
12810;SDS011;6470;47.654;7.896;2023-04-09T00:41:56;0.20;;;0.20;;
12810;SDS011;6470;47.654;7.896;2023-04-09T00:44:23;0.20;;;0.20;;
12810;SDS011;6470;47.654;7.896;2023-04-09T00:46:49;0.20;;;0.20;;
12810;SDS011;6470;47.654;7.896;2023-04-09T00:49:15;0.30;;;0.30;;
12810;SDS011;6470;47.654;7.896;2023-04-09T00:51:42;0.20;;;0.20;;
12810;SDS011;6470;47.654;7.896;2023-04-09T00:54:09;0.20;;;0.20;;
12810;SDS011;6470;47.654;7.896;2023-04-09T00:56:35;0.20;;;0.20;;
12810;SDS011;6470;47.654;7.896;2023-04-09T00:59:02;0.13;;;0.13;;
12810;SDS011;6470;47.654;7.896;2023-04-09T01:01:28;0.20;;;0.20;;
12810;SDS011;6470;47.654;7.896;2023-04-09T01:03:54;0.20;;;0.20;;
12810;SDS011;6470;47.654;7.896;2023-04-09T01:07:07;0.30;;;0.30;;
12810;SDS011;6470;47.654;7.896;2023-04-09T01:16:54;0.28;;;0.28;;
12810;SDS011;6470;47.654;7.896;2023-04-09T01:21:59;0.20;;;0.20;;
12810;SDS011;6470;47.654;7.896;2023-04-09T01:24:39;0.20;;;0.20;;
12810;SDS011;6470;47.654;7.896;2023-04-09T01:27:11;0.22;;;0.22;;
12810;SDS011;6470;47.654;7.896;2023-04-09T01:29:40;0.20;;;0.20;;
12810;SDS011;6470;47.654;7.896;2023-04-09T01:32:11;0.20;;;0.20;;
12810;SDS011;6470;47.654;7.896;2023-04-09T01:34:40;0.10;;;0.10;;
12810;SDS011;6470;47.654;7.896;2023-04-09T01:37:09;0.20;;;0.20;;
12810;SDS011;6470;47.654;7.896;2023-04-09T01:39:36;0.17;;;0.17;;
12810;SDS011;6470;47.654;7.896;2023-04-09T01:42:03;0.20;;;0.20;;
12810;SDS011;6470;47.654;7.896;2023-04-09T01:44:33;0.20;;;0.20;;
12810;SDS011;6470;47.654;7.896;2023-04-09T01:47:00;0.20;;;0.20;;
12810;SDS011;6470;47.654;7.896;2023-04-09T01:49:27;0.30;;;0.30;;
12810;SDS011;6470;47.654;7.896;2023-04-09T01:51:53;0.10;;;0.10;;
12810;SDS011;6470;47.654;7.896;2023-04-09T01:54:19;0.20;;;0.20;;
12810;SDS011;6470;47.654;7.896;2023-04-09T01:56:46;0.20;;;0.20;;
12810;SDS011;6470;47.654;7.896;2023-04-09T01:59:12;0.20;;;0.20;;
12810;SDS011;6470;47.654;7.896;2023-04-09T02:02:14;0.20;;;0.20;;
12810;SDS011;6470;47.654;7.896;2023-04-09T02:04:36;0.20;;;0.20;;
12810;SDS011;6470;47.654;7.896;2023-04-09T02:07:12;0.10;;;0.10;;
12810;SDS011;6470;47.654;7.896;2023-04-09T02:09:45;0.20;;;0.20;;
12810;SDS011;6470;47.654;7.896;2023-04-09T02:12:13;0.20;;;0.20;;
12810;SDS011;6470;47.654;7.896;2023-04-09T02:14:43;0.10;;;0.10;;
12810;SDS011;6470;47.654;7.896;2023-04-09T02:17:11;0.20;;;0.20;;
12810;SDS011;6470;47.654;7.896;2023-04-09T02:19:46;0.20;;;0.20;;
12810;SDS011;6470;47.654;7.896;2023-04-09T02:22:12;0.25;;;0.25;;
12810;SDS011;6470;47.654;7.896;2023-04-09T02:24:39;0.25;;;0.25;;
12810;SDS011;6470;47.654;7.896;2023-04-09T02:27:05;0.20;;;0.20;;
12810;SDS011;6470;47.654;7.896;2023-04-09T02:29:31;0.20;;;0.20;;
12810;SDS011;6470;47.654;7.896;2023-04-09T02:31:57;0.20;;;0.20;;
12810;SDS011;6470;47.654;7.896;2023-04-09T02:34:23;0.10;;;0.10;;
12810;SDS011;6470;47.654;7.896;2023-04-09T02:36:50;0.10;;;0.10;;
12810;SDS011;6470;47.654;7.896;2023-04-09T02:39:15;0.20;;;0.20;;
12810;SDS011;6470;47.654;7.896;2023-04-09T02:41:41;0.20;;;0.20;;
12810;SDS011;6470;47.654;7.896;2023-04-09T02:44:07;0.20;;;0.20;;
12810;SDS011;6470;47.654;7.896;2023-04-09T02:46:32;0.10;;;0.10;;
12810;SDS011;6470;47.654;7.896;2023-04-09T02:48:58;0.20;;;0.20;;
12810;SDS011;6470;47.654;7.896;2023-04-09T02:51:24;0.30;;;0.30;;
12810;SDS011;6470;47.654;7.896;2023-04-09T02:53:50;0.20;;;0.20;;
12810;SDS011;6470;47.654;7.896;2023-04-09T02:56:16;0.20;;;0.20;;
12810;SDS011;6470;47.654;7.896;2023-04-09T02:58:42;0.10;;;0.10;;
12810;SDS011;6470;47.654;7.896;2023-04-09T03:01:07;0.20;;;0.20;;
12810;SDS011;6470;47.654;7.896;2023-04-09T03:03:33;0.20;;;0.20;;
12810;SDS011;6470;47.654;7.896;2023-04-09T03:05:59;0.10;;;0.10;;
12810;SDS011;6470;47.654;7.896;2023-04-09T03:08:25;0.10;;;0.10;;
12810;SDS011;6470;47.654;7.896;2023-04-09T03:10:50;0.20;;;0.20;;
12810;SDS011;6470;47.654;7.896;2023-04-09T03:13:16;0.30;;;0.30;;
12810;SDS011;6470;47.654;7.896;2023-04-09T03:15:42;0.15;;;0.15;;
12810;SDS011;6470;47.654;7.896;2023-04-09T03:18:08;0.28;;;0.28;;
12810;SDS011;6470;47.654;7.896;2023-04-09T03:20:36;0.00;;;0.00;;
12810;SDS011;6470;47.654;7.896;2023-04-09T03:23:03;0.10;;;0.10;;
12810;SDS011;6470;47.654;7.896;2023-04-09T03:25:29;0.30;;;0.30;;
12810;SDS011;6470;47.654;7.896;2023-04-09T03:27:55;0.20;;;0.20;;
12810;SDS011;6470;47.654;7.896;2023-04-09T03:30:20;0.20;;;0.20;;
12810;SDS011;6470;47.654;7.896;2023-04-09T03:32:46;0.22;;;0.22;;
12810;SDS011;6470;47.654;7.896;2023-04-09T03:35:12;0.20;;;0.20;;
12810;SDS011;6470;47.654;7.896;2023-04-09T03:37:37;0.20;;;0.20;;
12810;SDS011;6470;47.654;7.896;2023-04-09T03:40:04;0.20;;;0.20;;
12810;SDS011;6470;47.654;7.896;2023-04-09T03:42:30;0.20;;;0.20;;
12810;SDS011;6470;47.654;7.896;2023-04-09T03:44:56;0.10;;;0.10;;
12810;SDS011;6470;47.654;7.896;2023-04-09T03:47:21;0.20;;;0.20;;
12810;SDS011;6470;47.654;7.896;2023-04-09T03:49:47;0.10;;;0.10;;
12810;SDS011;6470;47.654;7.896;2023-04-09T03:52:13;0.10;;;0.10;;
12810;SDS011;6470;47.654;7.896;2023-04-09T03:54:38;0.10;;;0.10;;
12810;SDS011;6470;47.654;7.896;2023-04-09T03:57:04;0.20;;;0.20;;
12810;SDS011;6470;47.654;7.896;2023-04-09T03:59:30;0.10;;;0.10;;
12810;SDS011;6470;47.654;7.896;2023-04-09T04:01:55;0.10;;;0.10;;
12810;SDS011;6470;47.654;7.896;2023-04-09T04:04:21;0.10;;;0.10;;
12810;SDS011;6470;47.654;7.896;2023-04-09T04:06:47;0.10;;;0.10;;
12810;SDS011;6470;47.654;7.896;2023-04-09T04:09:13;0.10;;;0.10;;
12810;SDS011;6470;47.654;7.896;2023-04-09T04:11:38;0.15;;;0.15;;
12810;SDS011;6470;47.654;7.896;2023-04-09T04:14:04;0.20;;;0.20;;
12810;SDS011;6470;47.654;7.896;2023-04-09T04:16:30;0.10;;;0.10;;
12810;SDS011;6470;47.654;7.896;2023-04-09T04:18:56;0.20;;;0.20;;
12810;SDS011;6470;47.654;7.896;2023-04-09T04:21:22;0.20;;;0.20;;
12810;SDS011;6470;47.654;7.896;2023-04-09T04:23:47;0.20;;;0.20;;
12810;SDS011;6470;47.654;7.896;2023-04-09T04:26:13;0.20;;;0.20;;
12810;SDS011;6470;47.654;7.896;2023-04-09T04:28:39;0.30;;;0.30;;
12810;SDS011;6470;47.654;7.896;2023-04-09T04:31:08;0.10;;;0.10;;
12810;SDS011;6470;47.654;7.896;2023-04-09T04:33:35;0.13;;;0.13;;
12810;SDS011;6470;47.654;7.896;2023-04-09T04:36:03;0.20;;;0.20;;
12810;SDS011;6470;47.654;7.896;2023-04-09T04:38:33;0.10;;;0.10;;
12810;SDS011;6470;47.654;7.896;2023-04-09T04:41:00;0.20;;;0.20;;
12810;SDS011;6470;47.654;7.896;2023-04-09T04:43:26;0.10;;;0.10;;
12810;SDS011;6470;47.654;7.896;2023-04-09T04:45:52;0.10;;;0.10;;
12810;SDS011;6470;47.654;7.896;2023-04-09T04:48:17;0.10;;;0.10;;
12810;SDS011;6470;47.654;7.896;2023-04-09T04:50:43;0.10;;;0.10;;
12810;SDS011;6470;47.654;7.896;2023-04-09T04:53:09;0.10;;;0.10;;
12810;SDS011;6470;47.654;7.896;2023-04-09T04:55:35;0.30;;;0.30;;
12810;SDS011;6470;47.654;7.896;2023-04-09T04:58:03;0.20;;;0.20;;
12810;SDS011;6470;47.654;7.896;2023-04-09T05:00:29;0.10;;;0.10;;
12810;SDS011;6470;47.654;7.896;2023-04-09T05:02:55;0.13;;;0.13;;
12810;SDS011;6470;47.654;7.896;2023-04-09T05:05:21;0.20;;;0.20;;
12810;SDS011;6470;47.654;7.896;2023-04-09T05:07:47;0.20;;;0.20;;
12810;SDS011;6470;47.654;7.896;2023-04-09T05:10:12;0.20;;;0.20;;
12810;SDS011;6470;47.654;7.896;2023-04-09T05:12:38;0.10;;;0.10;;
12810;SDS011;6470;47.654;7.896;2023-04-09T05:15:05;0.20;;;0.20;;
12810;SDS011;6470;47.654;7.896;2023-04-09T05:17:31;0.30;;;0.30;;
12810;SDS011;6470;47.654;7.896;2023-04-09T05:19:56;0.10;;;0.10;;
12810;SDS011;6470;47.654;7.896;2023-04-09T05:22:22;0.10;;;0.10;;
12810;SDS011;6470;47.654;7.896;2023-04-09T05:24:48;0.10;;;0.10;;
12810;SDS011;6470;47.654;7.896;2023-04-09T05:27:14;0.10;;;0.10;;
12810;SDS011;6470;47.654;7.896;2023-04-09T05:29:39;0.10;;;0.10;;
12810;SDS011;6470;47.654;7.896;2023-04-09T05:32:05;0.10;;;0.10;;
12810;SDS011;6470;47.654;7.896;2023-04-09T05:34:33;0.22;;;0.22;;
12810;SDS011;6470;47.654;7.896;2023-04-09T05:36:59;0.10;;;0.10;;
12810;SDS011;6470;47.654;7.896;2023-04-09T05:39:25;0.10;;;0.10;;
12810;SDS011;6470;47.654;7.896;2023-04-09T05:41:51;0.10;;;0.10;;
12810;SDS011;6470;47.654;7.896;2023-04-09T05:44:17;0.10;;;0.10;;
12810;SDS011;6470;47.654;7.896;2023-04-09T05:46:42;0.10;;;0.10;;
12810;SDS011;6470;47.654;7.896;2023-04-09T05:49:08;0.20;;;0.20;;
12810;SDS011;6470;47.654;7.896;2023-04-09T05:51:34;0.10;;;0.10;;
12810;SDS011;6470;47.654;7.896;2023-04-09T05:54:00;0.20;;;0.20;;
12810;SDS011;6470;47.654;7.896;2023-04-09T05:56:26;0.10;;;0.10;;
12810;SDS011;6470;47.654;7.896;2023-04-09T05:58:52;0.10;;;0.10;;
12810;SDS011;6470;47.654;7.896;2023-04-09T06:01:18;0.10;;;0.10;;
12810;SDS011;6470;47.654;7.896;2023-04-09T06:03:44;0.20;;;0.20;;
12810;SDS011;6470;47.654;7.896;2023-04-09T06:06:09;0.20;;;0.20;;
12810;SDS011;6470;47.654;7.896;2023-04-09T06:08:35;0.10;;;0.10;;
12810;SDS011;6470;47.654;7.896;2023-04-09T06:11:01;0.10;;;0.10;;
12810;SDS011;6470;47.654;7.896;2023-04-09T06:13:27;0.10;;;0.10;;
12810;SDS011;6470;47.654;7.896;2023-04-09T06:15:53;0.20;;;0.20;;
12810;SDS011;6470;47.654;7.896;2023-04-09T06:18:19;0.20;;;0.20;;
12810;SDS011;6470;47.654;7.896;2023-04-09T06:20:44;0.10;;;0.10;;
12810;SDS011;6470;47.654;7.896;2023-04-09T06:23:10;0.20;;;0.20;;
12810;SDS011;6470;47.654;7.896;2023-04-09T06:25:36;0.20;;;0.20;;
12810;SDS011;6470;47.654;7.896;2023-04-09T06:28:01;0.20;;;0.20;;
12810;SDS011;6470;47.654;7.896;2023-04-09T06:30:27;0.10;;;0.10;;
12810;SDS011;6470;47.654;7.896;2023-04-09T06:32:54;0.10;;;0.10;;
12810;SDS011;6470;47.654;7.896;2023-04-09T06:35:20;0.20;;;0.20;;
12810;SDS011;6470;47.654;7.896;2023-04-09T06:37:46;0.10;;;0.10;;
12810;SDS011;6470;47.654;7.896;2023-04-09T06:40:12;0.10;;;0.10;;
12810;SDS011;6470;47.654;7.896;2023-04-09T06:42:38;0.10;;;0.10;;
12810;SDS011;6470;47.654;7.896;2023-04-09T06:45:04;0.10;;;0.10;;
12810;SDS011;6470;47.654;7.896;2023-04-09T06:47:32;0.05;;;0.05;;
12810;SDS011;6470;47.654;7.896;2023-04-09T06:49:59;0.10;;;0.10;;
12810;SDS011;6470;47.654;7.896;2023-04-09T06:52:25;0.10;;;0.10;;
12810;SDS011;6470;47.654;7.896;2023-04-09T06:54:51;0.10;;;0.10;;
12810;SDS011;6470;47.654;7.896;2023-04-09T06:57:17;0.10;;;0.10;;
12810;SDS011;6470;47.654;7.896;2023-04-09T06:59:43;0.10;;;0.10;;
12810;SDS011;6470;47.654;7.896;2023-04-09T07:02:09;0.10;;;0.10;;
12810;SDS011;6470;47.654;7.896;2023-04-09T07:04:35;0.10;;;0.10;;
12810;SDS011;6470;47.654;7.896;2023-04-09T07:07:01;0.10;;;0.10;;
12810;SDS011;6470;47.654;7.896;2023-04-09T07:09:27;0.20;;;0.20;;
12810;SDS011;6470;47.654;7.896;2023-04-09T07:11:52;0.10;;;0.10;;
12810;SDS011;6470;47.654;7.896;2023-04-09T07:14:18;0.10;;;0.10;;
12810;SDS011;6470;47.654;7.896;2023-04-09T07:16:44;0.10;;;0.10;;
12810;SDS011;6470;47.654;7.896;2023-04-09T07:19:10;0.10;;;0.10;;
12810;SDS011;6470;47.654;7.896;2023-04-09T07:21:36;0.10;;;0.10;;
12810;SDS011;6470;47.654;7.896;2023-04-09T07:24:02;0.10;;;0.10;;
12810;SDS011;6470;47.654;7.896;2023-04-09T07:26:28;0.10;;;0.10;;
12810;SDS011;6470;47.654;7.896;2023-04-09T07:28:54;0.10;;;0.10;;
12810;SDS011;6470;47.654;7.896;2023-04-09T07:31:20;0.10;;;0.10;;
12810;SDS011;6470;47.654;7.896;2023-04-09T07:33:46;0.10;;;0.10;;
12810;SDS011;6470;47.654;7.896;2023-04-09T07:36:12;0.00;;;0.00;;
12810;SDS011;6470;47.654;7.896;2023-04-09T07:38:37;0.10;;;0.10;;
12810;SDS011;6470;47.654;7.896;2023-04-09T07:41:03;0.10;;;0.10;;
12810;SDS011;6470;47.654;7.896;2023-04-09T07:43:29;0.10;;;0.10;;
12810;SDS011;6470;47.654;7.896;2023-04-09T07:45:56;0.00;;;0.00;;
12810;SDS011;6470;47.654;7.896;2023-04-09T07:48:21;0.00;;;0.00;;
12810;SDS011;6470;47.654;7.896;2023-04-09T07:50:47;0.10;;;0.10;;
12810;SDS011;6470;47.654;7.896;2023-04-09T07:53:13;0.10;;;0.10;;
12810;SDS011;6470;47.654;7.896;2023-04-09T07:55:39;0.10;;;0.10;;
12810;SDS011;6470;47.654;7.896;2023-04-09T07:58:05;0.10;;;0.10;;
12810;SDS011;6470;47.654;7.896;2023-04-09T08:00:31;0.00;;;0.00;;
12810;SDS011;6470;47.654;7.896;2023-04-09T08:02:57;0.10;;;0.10;;
12810;SDS011;6470;47.654;7.896;2023-04-09T08:05:23;0.03;;;0.03;;
12810;SDS011;6470;47.654;7.896;2023-04-09T08:07:52;0.03;;;0.03;;
12810;SDS011;6470;47.654;7.896;2023-04-09T08:10:17;0.10;;;0.10;;
12810;SDS011;6470;47.654;7.896;2023-04-09T08:12:43;0.10;;;0.10;;
12810;SDS011;6470;47.654;7.896;2023-04-09T08:15:11;0.00;;;0.00;;
12810;SDS011;6470;47.654;7.896;2023-04-09T08:17:37;0.10;;;0.10;;
12810;SDS011;6470;47.654;7.896;2023-04-09T08:20:05;0.00;;;0.00;;
12810;SDS011;6470;47.654;7.896;2023-04-09T08:22:32;0.00;;;0.00;;
12810;SDS011;6470;47.654;7.896;2023-04-09T08:24:58;0.00;;;0.00;;
12810;SDS011;6470;47.654;7.896;2023-04-09T08:27:24;0.03;;;0.03;;
12810;SDS011;6470;47.654;7.896;2023-04-09T08:29:50;0.10;;;0.10;;
12810;SDS011;6470;47.654;7.896;2023-04-09T08:32:16;0.00;;;0.00;;
12810;SDS011;6470;47.654;7.896;2023-04-09T08:34:41;0.00;;;0.00;;
12810;SDS011;6470;47.654;7.896;2023-04-09T08:37:07;0.10;;;0.10;;
12810;SDS011;6470;47.654;7.896;2023-04-09T08:39:33;0.10;;;0.10;;
12810;SDS011;6470;47.654;7.896;2023-04-09T08:42:00;0.10;;;0.10;;
12810;SDS011;6470;47.654;7.896;2023-04-09T08:44:26;0.00;;;0.00;;
12810;SDS011;6470;47.654;7.896;2023-04-09T08:46:52;0.08;;;0.08;;
12810;SDS011;6470;47.654;7.896;2023-04-09T08:49:19;0.00;;;0.00;;
12810;SDS011;6470;47.654;7.896;2023-04-09T08:51:45;0.10;;;0.10;;
12810;SDS011;6470;47.654;7.896;2023-04-09T08:54:16;0.10;;;0.10;;
12810;SDS011;6470;47.654;7.896;2023-04-09T08:56:44;0.00;;;0.00;;
12810;SDS011;6470;47.654;7.896;2023-04-09T08:59:13;0.10;;;0.10;;
12810;SDS011;6470;47.654;7.896;2023-04-09T09:01:39;0.10;;;0.10;;
12810;SDS011;6470;47.654;7.896;2023-04-09T09:04:06;0.10;;;0.10;;
12810;SDS011;6470;47.654;7.896;2023-04-09T09:09:05;0.00;;;0.00;;
12810;SDS011;6470;47.654;7.896;2023-04-09T09:11:31;0.00;;;0.00;;
12810;SDS011;6470;47.654;7.896;2023-04-09T09:14:03;0.10;;;0.10;;
12810;SDS011;6470;47.654;7.896;2023-04-09T09:16:34;0.00;;;0.00;;
12810;SDS011;6470;47.654;7.896;2023-04-09T09:19:06;0.10;;;0.10;;
12810;SDS011;6470;47.654;7.896;2023-04-09T09:21:33;0.00;;;0.00;;
12810;SDS011;6470;47.654;7.896;2023-04-09T09:24:00;0.00;;;0.00;;
12810;SDS011;6470;47.654;7.896;2023-04-09T09:26:27;0.00;;;0.00;;
12810;SDS011;6470;47.654;7.896;2023-04-09T09:28:54;0.00;;;0.00;;
12810;SDS011;6470;47.654;7.896;2023-04-09T09:31:25;0.08;;;0.08;;
12810;SDS011;6470;47.654;7.896;2023-04-09T09:33:51;0.00;;;0.00;;
12810;SDS011;6470;47.654;7.896;2023-04-09T09:36:30;0.10;;;0.10;;
12810;SDS011;6470;47.654;7.896;2023-04-09T09:38:59;0.00;;;0.00;;
12810;SDS011;6470;47.654;7.896;2023-04-09T09:41:34;0.00;;;0.00;;
12810;SDS011;6470;47.654;7.896;2023-04-09T09:44:00;0.00;;;0.00;;
12810;SDS011;6470;47.654;7.896;2023-04-09T09:46:28;0.08;;;0.08;;
12810;SDS011;6470;47.654;7.896;2023-04-09T09:48:58;0.00;;;0.00;;
12810;SDS011;6470;47.654;7.896;2023-04-09T09:51:24;0.10;;;0.10;;
12810;SDS011;6470;47.654;7.896;2023-04-09T09:53:54;0.00;;;0.00;;
12810;SDS011;6470;47.654;7.896;2023-04-09T09:56:22;0.00;;;0.00;;
12810;SDS011;6470;47.654;7.896;2023-04-09T09:59:00;0.00;;;0.00;;
12810;SDS011;6470;47.654;7.896;2023-04-09T10:01:29;0.00;;;0.00;;
12810;SDS011;6470;47.654;7.896;2023-04-09T10:03:56;0.10;;;0.10;;
12810;SDS011;6470;47.654;7.896;2023-04-09T10:06:24;0.10;;;0.10;;
12810;SDS011;6470;47.654;7.896;2023-04-09T10:08:51;0.00;;;0.00;;
12810;SDS011;6470;47.654;7.896;2023-04-09T10:11:22;0.00;;;0.00;;
12810;SDS011;6470;47.654;7.896;2023-04-09T10:13:58;0.10;;;0.10;;
12810;SDS011;6470;47.654;7.896;2023-04-09T10:16:24;0.10;;;0.10;;
12810;SDS011;6470;47.654;7.896;2023-04-09T10:18:51;0.10;;;0.10;;
12810;SDS011;6470;47.654;7.896;2023-04-09T10:21:39;0.10;;;0.10;;
12810;SDS011;6470;47.654;7.896;2023-04-09T10:24:07;0.00;;;0.00;;
12810;SDS011;6470;47.654;7.896;2023-04-09T10:26:33;0.00;;;0.00;;
12810;SDS011;6470;47.654;7.896;2023-04-09T10:29:04;0.10;;;0.10;;
12810;SDS011;6470;47.654;7.896;2023-04-09T10:34:19;0.10;;;0.10;;
12810;SDS011;6470;47.654;7.896;2023-04-09T10:36:57;0.10;;;0.10;;
12810;SDS011;6470;47.654;7.896;2023-04-09T10:39:27;0.10;;;0.10;;
12810;SDS011;6470;47.654;7.896;2023-04-09T10:41:56;0.00;;;0.00;;
12810;SDS011;6470;47.654;7.896;2023-04-09T10:44:24;0.00;;;0.00;;
12810;SDS011;6470;47.654;7.896;2023-04-09T10:46:54;0.00;;;0.00;;
12810;SDS011;6470;47.654;7.896;2023-04-09T10:51:47;0.00;;;0.00;;
12810;SDS011;6470;47.654;7.896;2023-04-09T10:59:49;0.00;;;0.00;;
12810;SDS011;6470;47.654;7.896;2023-04-09T11:04:57;0.00;;;0.00;;
12810;SDS011;6470;47.654;7.896;2023-04-09T11:07:43;0.10;;;0.10;;
12810;SDS011;6470;47.654;7.896;2023-04-09T11:10:18;0.00;;;0.00;;
12810;SDS011;6470;47.654;7.896;2023-04-09T11:12:46;0.00;;;0.00;;
12810;SDS011;6470;47.654;7.896;2023-04-09T11:15:16;0.00;;;0.00;;
12810;SDS011;6470;47.654;7.896;2023-04-09T11:17:43;0.00;;;0.00;;
12810;SDS011;6470;47.654;7.896;2023-04-09T11:20:10;0.00;;;0.00;;
12810;SDS011;6470;47.654;7.896;2023-04-09T11:22:37;0.00;;;0.00;;
12810;SDS011;6470;47.654;7.896;2023-04-09T11:25:03;0.00;;;0.00;;
12810;SDS011;6470;47.654;7.896;2023-04-09T11:27:29;0.00;;;0.00;;
12810;SDS011;6470;47.654;7.896;2023-04-09T11:29:55;0.00;;;0.00;;
12810;SDS011;6470;47.654;7.896;2023-04-09T11:32:21;0.00;;;0.00;;
12810;SDS011;6470;47.654;7.896;2023-04-09T11:34:46;0.00;;;0.00;;
12810;SDS011;6470;47.654;7.896;2023-04-09T11:37:13;0.00;;;0.00;;
12810;SDS011;6470;47.654;7.896;2023-04-09T11:39:42;0.00;;;0.00;;
12810;SDS011;6470;47.654;7.896;2023-04-09T11:42:12;0.00;;;0.00;;
12810;SDS011;6470;47.654;7.896;2023-04-09T11:44:43;0.10;;;0.10;;
12810;SDS011;6470;47.654;7.896;2023-04-09T11:47:09;0.10;;;0.10;;
12810;SDS011;6470;47.654;7.896;2023-04-09T11:49:36;0.00;;;0.00;;
12810;SDS011;6470;47.654;7.896;2023-04-09T11:52:01;0.00;;;0.00;;
12810;SDS011;6470;47.654;7.896;2023-04-09T11:54:31;0.10;;;0.10;;
12810;SDS011;6470;47.654;7.896;2023-04-09T11:57:06;0.00;;;0.00;;
12810;SDS011;6470;47.654;7.896;2023-04-09T11:59:32;0.00;;;0.00;;
12810;SDS011;6470;47.654;7.896;2023-04-09T12:01:58;0.00;;;0.00;;
12810;SDS011;6470;47.654;7.896;2023-04-09T12:04:24;0.00;;;0.00;;
12810;SDS011;6470;47.654;7.896;2023-04-09T12:06:50;0.00;;;0.00;;
12810;SDS011;6470;47.654;7.896;2023-04-09T12:09:21;0.00;;;0.00;;
12810;SDS011;6470;47.654;7.896;2023-04-09T12:11:47;0.00;;;0.00;;
12810;SDS011;6470;47.654;7.896;2023-04-09T12:14:13;0.00;;;0.00;;
12810;SDS011;6470;47.654;7.896;2023-04-09T12:16:43;0.00;;;0.00;;
12810;SDS011;6470;47.654;7.896;2023-04-09T12:19:12;0.10;;;0.10;;
12810;SDS011;6470;47.654;7.896;2023-04-09T12:21:51;0.10;;;0.10;;
12810;SDS011;6470;47.654;7.896;2023-04-09T12:24:21;0.00;;;0.00;;
12810;SDS011;6470;47.654;7.896;2023-04-09T12:26:48;0.00;;;0.00;;
12810;SDS011;6470;47.654;7.896;2023-04-09T12:29:15;0.00;;;0.00;;
12810;SDS011;6470;47.654;7.896;2023-04-09T12:31:43;0.00;;;0.00;;
12810;SDS011;6470;47.654;7.896;2023-04-09T12:34:09;0.00;;;0.00;;
12810;SDS011;6470;47.654;7.896;2023-04-09T12:36:34;0.00;;;0.00;;
12810;SDS011;6470;47.654;7.896;2023-04-09T12:39:00;0.00;;;0.00;;
12810;SDS011;6470;47.654;7.896;2023-04-09T12:41:26;0.00;;;0.00;;
12810;SDS011;6470;47.654;7.896;2023-04-09T12:43:52;0.10;;;0.10;;
12810;SDS011;6470;47.654;7.896;2023-04-09T12:46:18;0.00;;;0.00;;
12810;SDS011;6470;47.654;7.896;2023-04-09T12:48:44;0.10;;;0.10;;
12810;SDS011;6470;47.654;7.896;2023-04-09T12:51:11;0.00;;;0.00;;
12810;SDS011;6470;47.654;7.896;2023-04-09T12:53:37;0.10;;;0.10;;
12810;SDS011;6470;47.654;7.896;2023-04-09T12:56:03;0.00;;;0.00;;
12810;SDS011;6470;47.654;7.896;2023-04-09T12:58:30;0.00;;;0.00;;
12810;SDS011;6470;47.654;7.896;2023-04-09T13:00:56;0.00;;;0.00;;
12810;SDS011;6470;47.654;7.896;2023-04-09T13:03:22;0.00;;;0.00;;
12810;SDS011;6470;47.654;7.896;2023-04-09T13:05:48;0.00;;;0.00;;
12810;SDS011;6470;47.654;7.896;2023-04-09T13:08:14;0.00;;;0.00;;
12810;SDS011;6470;47.654;7.896;2023-04-09T13:10:41;0.00;;;0.00;;
12810;SDS011;6470;47.654;7.896;2023-04-09T13:13:07;0.00;;;0.00;;
12810;SDS011;6470;47.654;7.896;2023-04-09T13:15:39;0.00;;;0.00;;
12810;SDS011;6470;47.654;7.896;2023-04-09T13:18:09;0.00;;;0.00;;
12810;SDS011;6470;47.654;7.896;2023-04-09T13:20:35;0.00;;;0.00;;
12810;SDS011;6470;47.654;7.896;2023-04-09T13:23:01;0.00;;;0.00;;
12810;SDS011;6470;47.654;7.896;2023-04-09T13:25:27;0.00;;;0.00;;
12810;SDS011;6470;47.654;7.896;2023-04-09T13:27:53;0.10;;;0.10;;
12810;SDS011;6470;47.654;7.896;2023-04-09T13:30:20;0.10;;;0.10;;
12810;SDS011;6470;47.654;7.896;2023-04-09T13:32:46;0.00;;;0.00;;
12810;SDS011;6470;47.654;7.896;2023-04-09T13:35:12;0.10;;;0.10;;
12810;SDS011;6470;47.654;7.896;2023-04-09T13:37:38;0.00;;;0.00;;
12810;SDS011;6470;47.654;7.896;2023-04-09T13:40:04;0.00;;;0.00;;
12810;SDS011;6470;47.654;7.896;2023-04-09T13:42:32;0.00;;;0.00;;
12810;SDS011;6470;47.654;7.896;2023-04-09T13:44:58;0.00;;;0.00;;
12810;SDS011;6470;47.654;7.896;2023-04-09T13:47:24;0.10;;;0.10;;
12810;SDS011;6470;47.654;7.896;2023-04-09T13:49:50;0.00;;;0.00;;
12810;SDS011;6470;47.654;7.896;2023-04-09T13:52:17;0.00;;;0.00;;
12810;SDS011;6470;47.654;7.896;2023-04-09T13:54:43;0.00;;;0.00;;
12810;SDS011;6470;47.654;7.896;2023-04-09T13:57:08;0.10;;;0.10;;
12810;SDS011;6470;47.654;7.896;2023-04-09T13:59:34;0.00;;;0.00;;
12810;SDS011;6470;47.654;7.896;2023-04-09T14:02:02;0.00;;;0.00;;
12810;SDS011;6470;47.654;7.896;2023-04-09T14:04:27;0.00;;;0.00;;
12810;SDS011;6470;47.654;7.896;2023-04-09T14:06:53;0.10;;;0.10;;
12810;SDS011;6470;47.654;7.896;2023-04-09T14:09:19;0.00;;;0.00;;
12810;SDS011;6470;47.654;7.896;2023-04-09T14:11:45;0.00;;;0.00;;
12810;SDS011;6470;47.654;7.896;2023-04-09T14:14:10;0.00;;;0.00;;
12810;SDS011;6470;47.654;7.896;2023-04-09T14:16:36;0.00;;;0.00;;
12810;SDS011;6470;47.654;7.896;2023-04-09T14:19:02;0.00;;;0.00;;
12810;SDS011;6470;47.654;7.896;2023-04-09T14:21:27;0.08;;;0.08;;
12810;SDS011;6470;47.654;7.896;2023-04-09T14:23:53;0.00;;;0.00;;
12810;SDS011;6470;47.654;7.896;2023-04-09T14:26:19;0.00;;;0.00;;
12810;SDS011;6470;47.654;7.896;2023-04-09T14:28:47;0.00;;;0.00;;
12810;SDS011;6470;47.654;7.896;2023-04-09T14:31:13;0.10;;;0.10;;
12810;SDS011;6470;47.654;7.896;2023-04-09T14:33:39;0.00;;;0.00;;
12810;SDS011;6470;47.654;7.896;2023-04-09T14:36:05;0.00;;;0.00;;
12810;SDS011;6470;47.654;7.896;2023-04-09T14:38:32;0.00;;;0.00;;
12810;SDS011;6470;47.654;7.896;2023-04-09T14:40:58;0.00;;;0.00;;
12810;SDS011;6470;47.654;7.896;2023-04-09T14:43:24;0.00;;;0.00;;
12810;SDS011;6470;47.654;7.896;2023-04-09T14:45:51;0.00;;;0.00;;
12810;SDS011;6470;47.654;7.896;2023-04-09T14:48:18;0.00;;;0.00;;
12810;SDS011;6470;47.654;7.896;2023-04-09T14:50:44;0.00;;;0.00;;
12810;SDS011;6470;47.654;7.896;2023-04-09T14:53:10;0.03;;;0.03;;
12810;SDS011;6470;47.654;7.896;2023-04-09T14:55:36;0.00;;;0.00;;
12810;SDS011;6470;47.654;7.896;2023-04-09T14:58:02;0.00;;;0.00;;
12810;SDS011;6470;47.654;7.896;2023-04-09T15:00:31;0.00;;;0.00;;
12810;SDS011;6470;47.654;7.896;2023-04-09T15:02:57;0.00;;;0.00;;
12810;SDS011;6470;47.654;7.896;2023-04-09T15:05:23;0.00;;;0.00;;
12810;SDS011;6470;47.654;7.896;2023-04-09T15:07:49;0.10;;;0.10;;
12810;SDS011;6470;47.654;7.896;2023-04-09T15:10:15;0.10;;;0.10;;
12810;SDS011;6470;47.654;7.896;2023-04-09T15:12:40;0.00;;;0.00;;
12810;SDS011;6470;47.654;7.896;2023-04-09T15:15:07;0.00;;;0.00;;
12810;SDS011;6470;47.654;7.896;2023-04-09T15:17:33;0.00;;;0.00;;
12810;SDS011;6470;47.654;7.896;2023-04-09T15:19:59;0.00;;;0.00;;
12810;SDS011;6470;47.654;7.896;2023-04-09T15:22:25;0.10;;;0.10;;
12810;SDS011;6470;47.654;7.896;2023-04-09T15:24:51;0.00;;;0.00;;